createdAt,value
2022-09-10T00:45:53.465Z,5.57
2022-09-10T00:49:16.827Z,6.07
2022-09-10T00:52:09.142Z,9.27
2022-09-10T01:43:31.932Z,25.15
2022-09-10T05:43:41.935Z,26.20
2022-09-10T05:46:24.782Z,24.95
2022-09-10T05:49:07.453Z,25.38
2022-09-10T05:51:36.444Z,25.65
2022-09-10T05:54:44.689Z,27.58
2022-09-10T05:57:13.509Z,26.92
2022-09-10T05:59:49.129Z,21.15
2022-09-10T06:02:31.872Z,25.10
2022-09-10T06:05:06.010Z,23.20
2022-09-10T06:07:36.588Z,25.17
2022-09-10T06:10:29.873Z,21.90
2022-09-10T06:13:12.401Z,20.90
2022-09-10T06:15:56.852Z,19.65
2022-09-10T10:16:19.006Z,6.85
2022-09-10T10:19:30.615Z,10.00
2022-09-10T10:25:34.789Z,9.48
2022-09-10T10:37:21.155Z,8.18
2022-09-10T10:40:17.711Z,7.10
2022-09-10T10:47:02.366Z,6.78
2022-09-10T10:53:59.031Z,8.32
2022-09-10T10:59:50.701Z,5.78
2022-09-10T11:03:03.782Z,6.63
2022-09-10T11:05:42.466Z,5.25
2022-09-10T11:09:00.302Z,6.60
2022-09-10T11:11:56.126Z,4.97
2022-09-10T11:15:40.007Z,5.07
2022-09-10T11:18:22.683Z,6.47
2022-09-10T11:21:06.820Z,5.88
2022-09-10T11:23:47.768Z,7.07
2022-09-10T11:26:26.601Z,6.45
2022-09-10T11:29:39.288Z,5.95
2022-09-10T11:32:29.979Z,7.90
2022-09-10T11:35:58.547Z,8.85
2022-09-10T11:39:04.314Z,6.25
2022-09-10T11:41:35.247Z,6.40
2022-09-10T11:44:18.541Z,6.90
2022-09-10T11:46:57.742Z,6.50
2022-09-10T11:49:37.216Z,7.40
2022-09-10T11:52:05.593Z,6.53
2022-09-10T11:54:38.505Z,8.40
2022-09-10T11:57:11.866Z,9.05
2022-09-10T11:59:59.537Z,8.60
2022-09-10T12:05:54.208Z,6.25
2022-09-10T12:08:46.442Z,6.30
2022-09-10T12:14:23.520Z,8.77
2022-09-10T12:16:57.776Z,9.23
2022-09-10T12:19:31.375Z,6.57
2022-09-10T12:22:03.340Z,8.27
2022-09-10T12:24:36.230Z,7.10
2022-09-10T12:27:08.204Z,7.18
2022-09-10T12:29:38.354Z,6.65
2022-09-10T12:32:29.610Z,7.57
2022-09-10T12:35:53.427Z,9.13
2022-09-10T12:38:57.865Z,9.35
2022-09-10T12:42:24.648Z,8.07
2022-09-10T12:44:55.270Z,8.43
2022-09-10T12:48:12.803Z,5.68
2022-09-10T12:50:46.466Z,7.72
2022-09-10T12:53:56.944Z,6.72
2022-09-10T12:57:09.040Z,6.47
2022-09-10T13:00:17.707Z,7.45
2022-09-10T13:02:54.329Z,8.02
2022-09-10T13:05:32.286Z,5.47
2022-09-10T13:08:19.853Z,6.82
2022-09-10T13:11:08.758Z,7.47
2022-09-10T13:13:42.458Z,8.23
2022-09-10T13:16:18.286Z,7.22
2022-09-10T13:18:55.056Z,8.25
2022-09-10T13:21:54.819Z,7.25
2022-09-10T13:25:26.613Z,7.25
2022-09-10T13:27:55.431Z,6.13
2022-09-10T13:30:24.671Z,7.05
2022-09-10T13:32:56.917Z,7.28
2022-09-10T13:36:12.535Z,7.45
2022-09-10T13:39:23.746Z,6.60
2022-09-10T13:43:07.125Z,5.75
2022-09-10T13:45:41.401Z,8.02
2022-09-10T13:48:15.078Z,6.70
2022-09-10T13:50:57.659Z,6.00
2022-09-10T13:53:28.314Z,6.63
2022-09-10T13:55:59.794Z,7.38
2022-09-10T13:58:33.221Z,8.68
2022-09-10T14:01:03.380Z,5.13
2022-09-10T14:03:33.837Z,5.93
2022-09-10T14:06:07.555Z,5.22
2022-09-10T14:08:42.266Z,4.93
2022-09-10T14:11:20.640Z,5.72
2022-09-10T14:13:55.820Z,6.57
2022-09-10T14:16:30.490Z,6.57
2022-09-10T14:19:02.281Z,7.40
2022-09-10T14:21:32.561Z,4.88
2022-09-10T14:24:01.310Z,5.65
2022-09-10T14:26:33.615Z,5.22
2022-09-10T14:29:04.199Z,6.05
2022-09-10T14:32:26.746Z,4.47
2022-09-10T14:34:55.666Z,4.45
2022-09-10T14:37:39.769Z,4.60
2022-09-10T14:40:20.831Z,5.80
2022-09-10T14:42:50.961Z,5.05
2022-09-10T14:45:42.990Z,8.18
2022-09-10T14:48:44.533Z,5.22
2022-09-10T14:51:29.089Z,4.53
2022-09-10T14:54:00.458Z,5.95
2022-09-10T14:56:54.891Z,5.60
2022-09-10T14:59:31.579Z,5.72
2022-09-10T15:02:03.605Z,6.13
2022-09-10T15:04:33.013Z,7.93
2022-09-10T15:07:54.653Z,6.22
2022-09-10T15:15:08.470Z,4.90
2022-09-10T15:20:29.087Z,11.68
2022-09-10T15:23:10.444Z,5.78
2022-09-10T15:25:47.716Z,4.97
2022-09-10T15:28:16.771Z,3.88
2022-09-10T15:30:55.311Z,4.40
2022-09-10T15:33:24.813Z,6.72
2022-09-10T15:35:55.010Z,3.75
2022-09-10T15:44:41.431Z,5.60
2022-09-10T15:47:11.553Z,5.32
2022-09-10T15:49:39.995Z,8.07
2022-09-10T15:52:08.667Z,5.72
2022-09-10T15:54:37.299Z,3.65
2022-09-10T15:57:06.847Z,4.85
2022-09-10T16:00:20.391Z,5.13
2022-09-10T16:14:07.968Z,7.25
2022-09-10T19:59:28.140Z,10.50
2022-09-10T20:02:01.254Z,12.00
2022-09-10T20:04:30.112Z,13.40
2022-09-10T23:07:03.286Z,25.05
2022-09-10T23:10:01.700Z,25.90
2022-09-10T23:13:12.062Z,23.63
2022-09-10T23:16:44.633Z,23.80
2022-09-10T23:30:53.072Z,22.67
2022-09-10T23:34:05.963Z,24.77
2022-09-10T23:48:14.185Z,22.88
